• Join FlightAware (Why Join?)
  • Login
  • US Flag 
03:18AM EDT


 

Airport Tracker/Info


-or-


 

Live Flight TrackerFlight Track Log ✈ N534QS ✈ 19-May-2013 ✈ TBPB / BGI - KPBI

Flight Track Log - Related Links

Times and Time Zones

All times are in EDT time to prevent confusion due to time zone crossing. See the N534QS flight status page for this flight to view local times or setup timezone preferences in your user account.

Time Position Orientation Groundspeed Altitude Reporting Facility
EDT Latitude Longitude Course Direction KTS MPH feet Rate Location/Type
09:18AM 13.1407 -59.5784 308° West  Level Estimated
09:19AM 13.2169 -59.6777 308° West  Level Estimated
09:20AM 13.2930 -59.7770 308° West  Level Estimated
09:21AM 13.3691 -59.8763 308° West  Level Estimated
09:22AM 13.4452 -59.9757 308° West  Level Estimated
09:23AM 13.5213 -60.0752 308° West  Level Estimated
09:24AM 13.5973 -60.1748 308° West  Level Estimated
09:25AM 13.6732 -60.2744 308° West  Level Estimated
09:26AM 13.7491 -60.3741 308° West  Level Estimated
09:27AM 13.8250 -60.4738 308° West  Level Estimated
09:28AM 13.9009 -60.5736 308° West  Level Estimated
09:29AM 13.9767 -60.6735 308° West  Level Estimated
09:30AM 14.0524 -60.7734 308° West  Level Estimated
09:31AM 14.1281 -60.8734 308° West  Level Estimated
09:32AM 14.2038 -60.9735 308° West  Level Estimated
09:33AM 14.2795 -61.0736 308° West  Level Estimated
09:34AM 14.3551 -61.1739 308° West  Level Estimated
09:35AM 14.4306 -61.2741 308° West  Level Estimated
09:36AM 14.5061 -61.3745 308° West  Level Estimated
09:37AM 14.5816 -61.4749 308° West  Level Estimated
09:38AM 14.6570 -61.5754 308° West  Level Estimated
09:39AM 14.7324 -61.6759 308° West  Level Estimated
09:40AM 14.8077 -61.7765 308° West  Level Estimated
09:41AM 14.8830 -61.8772 308° West  Level Estimated
09:42AM 14.9583 -61.9780 308° West  Level Estimated
09:42AM 16.2167 -62.8833 308° West 430 495 43,000  Level San Juan Center
09:43AM 15.0335 -62.0788 308° West  Level Estimated
09:43AM 16.3000 -62.9833 311° West 420 483 43,000  Level San Juan Center
09:44AM 15.1086 -62.1797 308° West  Level Estimated
09:44AM 16.3667 -63.0667 310° West 420 483 43,000  Level San Juan Center
09:45AM 15.1837 -62.2807 308° West  Level Estimated
09:45AM 16.4333 -63.1833 301° West 420 483 43,000  Level San Juan Center
09:46AM 15.2588 -62.3817 308° West  Level Estimated
09:46AM 16.5000 -63.3000 301° West 420 483 43,000  Level San Juan Center
09:47AM 15.3338 -62.4828 308° West  Level Estimated
09:47AM 16.5500 -63.4000 298° West 420 483 43,000  Level San Juan Center
09:48AM 16.6167 -63.5000 305° West 420 483 43,000  Level San Juan Center
09:49AM 16.6833 -63.6000 305° West 420 483 43,000  Level San Juan Center
09:50AM 16.7500 -63.7000 305° West 420 483 43,000  Level San Juan Center
09:51AM 16.8333 -63.8000 311° West 420 483 43,000  Level San Juan Center
09:52AM 16.9000 -63.9000 305° West 420 483 43,000  Level San Juan Center
09:53AM 16.9500 -63.9833 302° West 410 472 43,000  Level San Juan Center
09:54AM 17.0167 -64.1000 301° West 420 483 43,000  Level San Juan Center
09:55AM 17.0833 -64.2000 305° West 410 472 43,000  Level San Juan Center
09:56AM 17.1500 -64.3000 305° West 420 483 43,000  Level San Juan Center
09:57AM 17.2167 -64.4000 305° West 410 472 43,000  Level San Juan Center
09:58AM 17.2833 -64.5000 305° West 410 472 43,000  Level San Juan Center
09:59AM 17.3500 -64.5833 310° West 410 472 43,000  Level San Juan Center
10:00AM 17.4167 -64.6833 305° West 410 472 43,000  Level San Juan Center
10:01AM 17.4667 -64.7833 298° West 410 472 43,000  Level San Juan Center
10:02AM 17.5333 -64.8833 305° West 410 472 43,000  Level San Juan Center
10:03AM 17.6000 -64.9833 305° West 410 472 43,000  Level San Juan Center
10:04AM 17.6667 -65.1000 301° West 410 472 43,000  Level San Juan Center
10:05AM 17.7333 -65.1833 310° West 410 472 43,000  Level San Juan Center
10:06AM 17.8000 -65.2833 305° West 410 472 43,000  Level San Juan Center
10:07AM 17.8667 -65.3833 305° West 410 472 43,000  Level San Juan Center
10:08AM 17.9333 -65.5000 301° West 410 472 43,000  Level San Juan Center
10:09AM 18.0000 -65.6000 305° West 410 472 43,000  Level San Juan Center
10:10AM 18.0500 -65.6833 302° West 410 472 43,000  Level San Juan Center
10:11AM 18.1167 -65.7833 305° West 390 449 43,000  Level San Juan Center
10:12AM 18.1833 -65.8833 305° West 400 460 43,000  Level San Juan Center
10:13AM 18.2333 -65.9833 298° West 410 472 43,000  Level San Juan Center
10:14AM 18.3000 -66.0833 305° West 420 483 43,000  Level San Juan Center
10:15AM 18.3667 -66.1833 305° West 410 472 43,000  Level San Juan Center
10:16AM 18.4333 -66.2833 305° West 410 472 43,000  Level San Juan Center
10:17AM 18.5000 -66.3833 305° West 410 472 43,000  Level San Juan Center
10:18AM 18.5667 -66.4833 305° West 410 472 43,000  Level San Juan Center
10:19AM 18.6333 -66.5833 305° West 410 472 43,000  Level San Juan Center
10:20AM 18.6833 -66.6833 298° West 410 472 43,000  Level San Juan Center
10:21AM 18.7500 -66.7833 305° West 410 472 43,000  Level San Juan Center
10:22AM 18.8167 -66.8833 305° West 410 472 43,000  Level San Juan Center
10:23AM 18.8833 -66.9833 305° West 410 472 43,000  Level San Juan Center
10:24AM 18.9333 -67.0833 298° West 410 472 43,000  Level San Juan Center
10:25AM 19.0000 -67.1833 305° West 390 449 43,000  Level San Juan Center
10:26AM 19.0500 -67.2833 298° West 410 472 43,000  Level San Juan Center
10:27AM 19.1167 -67.3833 305° West 410 472 43,000  Level San Juan Center
10:28AM 19.1833 -67.4833 305° West 410 472 43,000  Level San Juan Center
10:29AM 19.2500 -67.5833 305° West 410 472 43,000  Level San Juan Center
10:30AM 19.3000 -67.6833 298° West 410 472 43,000  Level San Juan Center
10:31AM 19.3667 -67.7833 305° West 400 460 43,000  Level San Juan Center
10:32AM 19.4333 -67.9000 301° West 410 472 43,000  Level San Juan Center
10:33AM 19.5000 -67.9833 310° West 410 472 43,000  Level San Juan Center
10:34AM 19.5500 -68.1000 294° West 410 472 43,000  Level San Juan Center
10:35AM 19.6167 -68.2000 305° West 400 460 43,000  Level San Juan Center
10:36AM 19.6833 -68.3000 305° West 400 460 43,000  Level San Juan Center
10:37AM 19.7800 -68.4625 302° West 389 448 43,000  Level Miami Center
10:38AM 19.8372 -68.5625 301° West 394 453 43,000  Level Miami Center
10:39AM 19.9006 -68.6619 304° West 394 453 43,000  Level Miami Center
10:40AM 19.9661 -68.7572 306° West 399 459 43,000  Level Miami Center
10:41AM 20.0314 -68.8547 305° West 409 471 43,000  Level Miami Center
10:42AM 20.0967 -68.9522 305° West 409 471 43,000  Level Miami Center
10:43AM 20.1597 -69.0478 305° West 409 471 43,000  Level Miami Center
10:44AM 20.2211 -69.1481 303° West 404 465 43,000  Level Miami Center
10:45AM 20.2861 -69.2458 305° West 404 465 43,000  Level Miami Center
10:46AM 20.3492 -69.3417 305° West 404 465 43,000  Level Miami Center
10:47AM 20.4122 -69.4400 304° West 409 471 43,000  Level Miami Center
10:48AM 20.4772 -69.5381 305° West 409 471 43,000  Level Miami Center
10:49AM 20.5333 -69.6236 305° West 409 471 43,000  Level Miami Center
10:50AM 20.5961 -69.7197 305° West 409 471 43,000  Level Miami Center
10:51AM 20.6569 -69.8206 303° West 409 471 43,000  Level Miami Center
10:52AM 20.7217 -69.9192 305° West 409 471 43,000  Level Miami Center
10:53AM 20.7867 -70.0178 305° West 409 471 43,000  Level Miami Center
10:54AM 20.8494 -70.1189 304° West 409 471 43,000  Level Miami Center
10:55AM 20.9139 -70.2153 306° West 409 471 43,000  Level Miami Center
10:56AM 20.9656 -70.2972 304° West 409 471 43,000  Level Miami Center
10:57AM 21.0392 -70.4136 304° West 409 471 43,000  Level Miami Center
10:58AM 21.1036 -70.5125 305° West 409 471 43,000  Level Miami Center
10:59AM 21.1681 -70.6119 305° West 409 471 43,000  Level Miami Center
11:00AM 21.2306 -70.7114 304° West 409 471 43,000  Level Miami Center
11:01AM 21.2928 -70.8086 304° West 409 471 43,000  Level Miami Center
11:02AM 21.3572 -70.9103 304° West 409 471 43,000  Level Miami Center
11:03AM 21.4217 -71.0097 305° West 409 471 43,000  Level Miami Center
11:04AM 21.4883 -71.1206 303° West 409 471 43,000  Level Miami Center
11:05AM 21.5417 -71.2075 303° West 409 471 43,000  Level Miami Center
11:06AM 21.6189 -71.3269 305° West 460 529 43,000  Level Miami Center
11:07AM 21.6808 -71.4269 304° West 421 484 43,000 300 Level Miami Center
11:08AM 21.7431 -71.5294 303° West 409 471 43,700 840 Climbing Miami Center
11:09AM 21.8069 -71.6319 304° West 409 471 44,700 960 Climbing Miami Center
11:10AM 21.8689 -71.7344 303° West 409 471 45,700 960 Climbing Miami Center
11:11AM 21.9328 -71.8372 304° West 409 471 46,700 600 Climbing Miami Center
11:12AM 21.9989 -71.9397 305° West 409 471 47,000 120 Climbing Miami Center
11:13AM 22.0628 -72.0447 303° West 409 471 47,000  Level Miami Center
11:14AM 22.1264 -72.1478 304° West 414 476 47,000  Level Miami Center
11:15AM 22.1881 -72.2531 302° West 414 476 47,000  Level Miami Center
11:16AM 22.2517 -72.3564 304° West 414 476 47,000  Level Miami Center
11:17AM 22.3131 -72.4575 303° West 414 476 47,000  Level Miami Center
11:18AM 22.3808 -72.5628 305° West 414 476 47,000  Level Miami Center
11:19AM 22.4425 -72.6708 302° West 419 482 47,000  Level Miami Center
11:20AM 22.5078 -72.7744 304° West 419 482 47,000  Level Miami Center
11:21AM 22.5669 -72.8806 301° West 419 482 47,000  Level Miami Center
11:22AM 22.6367 -72.9864 306° West 425 489 47,000  Level Miami Center
11:23AM 22.7019 -73.0947 303° West 425 489 47,000  Level Miami Center
11:24AM 22.7608 -73.1989 302° West 420 483 47,000  Level Miami Center
11:25AM 22.8242 -73.3053 303° West 420 483 47,000  Level Miami Center
11:26AM 22.8850 -73.4139 301° West 427 491 47,000  Level Miami Center
11:27AM 22.9542 -73.5203 305° West 427 491 47,000  Level Miami Center
11:28AM 23.0194 -73.6292 303° West 427 491 47,000  Level Miami Center
11:29AM 23.0822 -73.7358 303° West 427 491 47,000  Level Miami Center
11:30AM 23.1469 -73.8428 303° West 427 491 47,000  Level Miami Center
11:31AM 23.2139 -73.9497 304° West 427 491 47,000  Level Miami Center
11:32AM 23.2764 -74.0567 302° West 427 491 47,000  Level Miami Center
11:33AM 23.3411 -74.1661 303° West 427 491 47,000  Level Miami Center
11:34AM 23.4017 -74.2736 302° West 427 491 47,000  Level Miami Center
11:35AM 23.4683 -74.3833 304° West 427 491 47,000  Level Miami Center
11:36AM 23.5306 -74.4908 302° West 427 491 47,000  Level Miami Center
11:37AM 23.5950 -74.6006 303° West 427 491 47,000  Level Miami Center
11:38AM 23.6592 -74.7083 303° West 427 491 47,000  Level Miami Center
11:39AM 23.7233 -74.8161 303° West 427 491 47,000  Level Miami Center
11:40AM 23.7875 -74.9286 302° West 427 491 47,000  Level Miami Center
11:41AM 23.8517 -75.0392 302° West 427 491 47,000  Level Miami Center
11:42AM 23.9156 -75.1494 302° West 427 491 47,000  Level Miami Center
11:43AM 23.9817 -75.2622 303° West 427 491 47,000  Level Miami Center
11:44AM 24.0456 -75.3708 303° West 427 491 47,000  Level Miami Center
11:45AM 24.1092 -75.4839 302° West 427 491 47,000  Level Miami Center
11:46AM 24.1731 -75.5925 303° West 427 491 47,000  Level Miami Center
11:47AM 24.2367 -75.7058 302° West 427 491 47,000  Level Miami Center
11:48AM 24.3000 -75.8144 303° West 427 491 47,000  Level Miami Center
11:49AM 24.3636 -75.9281 302° West 427 491 47,000  Level Miami Center
11:50AM 24.4269 -76.0372 303° West 427 491 47,000  Level Miami Center
11:51AM 24.4903 -76.1531 301° West 427 491 47,000  Level Miami Center
11:52AM 24.5556 -76.2625 303° West 427 491 47,000  Level Miami Center
11:53AM 24.6164 -76.3742 301° West 427 491 47,000  Level Miami Center
11:54AM 24.6794 -76.4861 302° West 427 491 47,000  Level Miami Center
11:55AM 24.7403 -76.5956 301° West 427 491 47,000 -180 Level Miami Center
11:56AM 24.8053 -76.7100 302° West 427 491 46,700 -1,500 Descending Miami Center
11:57AM 24.8681 -76.8222 302° West 432 497 44,100 -2,580 Descending Miami Center
11:58AM 24.9328 -76.9367 302° West 432 497 41,600 -2,580 Descending Miami Center
11:59AM 24.9956 -77.0469 302° West 427 491 39,000 -2,400 Descending Miami Center
12:00PM 25.0600 -77.1617 302° West 427 491 36,400 -2,640 Descending Miami Center
12:01PM 25.1392 -77.2994 302° West 434 499 33,200 -2,640 Descending Miami Center
12:02PM 25.2078 -77.4239 301° West 448 516 31,200 -2,340 Descending Miami Center
12:03PM 25.2636 -77.5297 300° West 454 522 28,600 -1,620 Descending Miami Center
12:04PM 25.3258 -77.6450 301° West 454 522 28,000 -300 Descending Miami Center
12:05PM 25.3900 -77.7606 302° West 448 516 28,000 -60 Level Miami Center
12:06PM 25.4497 -77.8736 300° West 437 503 27,900 -300 Descending Miami Center
12:07PM 25.5117 -77.9847 302° West 432 497 27,400 -1,140 Descending Miami Center
12:08PM 25.5714 -78.0958 301° West 425 489 25,700 -1,740 Descending Miami Center
12:09PM 25.6311 -78.2025 302° West 420 483 24,000 -1,680 Descending Miami Center
12:10PM 25.6886 -78.3092 301° West 414 476 22,400 -1,500 Descending Miami Center
12:11PM 25.7419 -78.4161 299° West 408 470 21,100 -1,080 Descending Miami Center
12:12PM 25.8033 -78.5161 304° West 402 463 20,300 -600 Descending Miami Center
12:13PM 25.8567 -78.6161 301° West 391 450 20,000 -180 Descending Miami Center
12:14PM 25.9139 -78.7208 301° West 391 450 20,000  Level Miami Center
12:15PM 25.9667 -78.8256 299° West 391 450 20,000 -60 Level Miami Center
12:16PM 26.0300 -78.9353 303° West 385 443 19,900 -1,500 Descending Miami Center
12:17PM 26.0892 -79.0358 303° West 385 443 17,000 -3,120 Descending Miami Center
12:18PM 26.1442 -79.1294 303° West 385 443 13,700 -3,300 Descending Miami Center
12:19PM 26.1947 -79.2278 300° West 374 430 10,400 -3,000 Descending Miami Center
12:20PM 26.2456 -79.3144 303° West 359 413 7,800 -2,220 Descending Miami Center
12:21PM 26.2883 -79.3872 303° West 325 374 6,000 -1,380 Descending Miami Center
12:22PM 26.3389 -79.4786 302° West 318 366 5,100 -540 Descending Miami Center
12:23PM 26.3794 -79.5514 302° West 318 366 5,000 -60 Descending Miami Center
12:24PM 26.4278 -79.6383 302° West 313 360 5,000  Level Miami Center
12:25PM 26.4642 -79.7019 303° West 292 336 5,000 -300 Level Miami Center
12:26PM 26.5086 -79.7819 302° West 281 323 4,400 -540 Descending Miami Center
12:27PM 26.5428 -79.8453 301° West 276 318 4,000 -240 Descending Miami Center
12:28PM 26.5642 -79.9250 287° West 258 297 4,000  Level Miami Center
12:29PM 26.5689 -79.9900 275° West 240 276 4,000  Level Miami Center
12:30PM 26.5753 -80.0808 275° West 260 299 4,000 -600 Level Miami Center
12:31PM 26.5969 -80.1489 290° West 266 306 2,800 -1,200 Descending Miami Center
12:33PM 26.6832 -80.0956 29° Northeast  Level Estimated
12:40PM 26.6832 -80.0956 222° Southwest  Level Estimated
12:41PM 26.6832 -80.0956 222° Southwest  Level Estimated
12:42PM 26.6832 -80.0956 222° Southwest  Level Estimated
12:43PM 26.6832 -80.0956 222° Southwest  Level Estimated
12:44PM 26.6832 -80.0956 222° Southwest  Level Estimated
12:45PM 26.6832 -80.0956 222° Southwest  Level Estimated